< < Back
Terminal Aerodrome Forecast


Current Version              Previous Versions:   1  2  3  4  5  6  7  8  9  

Terminal Aerodrome Forecast

183
FTUS42 KGSP 061735
TAFCLT
TAF
KCLT 061735Z 0618/0718 02005KT P6SM BKN250
     FM062300 05005KT P6SM FEW050 SCT090
     FM070800 01006KT P6SM VCSH SCT050 BKN090
     FM071300 36007KT P6SM BKN250=

Latest METAR

119
SAUS70 KWBC 062000 RRA
MTRCLT
METAR KCLT 061952Z 33005KT 10SM FEW065 BKN160 09/M11 A3030 RMK AO2
SLP262 T00941106


USA.gov is the U.S. government's official web portal to all federal, state and local government web resources and services.